WEATHER DATA

TODAY
Time Temp. Dewp. Hum. Wind dir Wind speed Wind gust Bar. 1h Prec. 24h Prec.
00:15 -0.3 -0.3 100 255 1.7 2.8 1029.8 0.0000 0.0000
00:26 -0.4 -0.4 100 254 1.4 2.5 1029.8 0.0000 0.0000
00:35 -0.4 -0.4 100 247 1.7 2.5 1029.8 0.0000 0.0000
00:45 -0.4 -0.4 100 261 1.4 2.5 1029.9 0.0000 0.0000
00:55 -0.4 -0.4 100 264 1.4 2.2 1030 0.0000 0.0000
01:06 -0.5 -0.5 100 258 1.4 2.5 1030 0.0000 0.0000
01:16 -0.5 -0.5 100 251 1.7 2.8 1030 0.0000 0.0000
01:26 -0.5 -0.5 100 253 1.7 2.8 1030.1 0.0000 0.0000
01:34 -0.5 -0.5 100 251 1.7 2.8 1030.1 0.0000 0.0000
01:43 -0.5 -0.5 100 257 1.9 2.8 1030.2 0.0000 0.0000
01:54 -0.6 -0.6 100 257 1.7 2.8 1030.3 0.0000 0.0000
02:04 -0.6 -0.6 100 256 1.4 2.2 1030.4 0.0000 0.0000
02:14 -0.6 -0.6 100 248 1.7 2.5 1030.5 0.0000 0.0000
02:23 -0.6 -0.6 100 249 1.4 2.5 1030.6 0.0000 0.0000
02:34 -0.6 -0.6 100 247 1.4 2.5 1030.6 0.0000 0.0000
02:44 -0.6 -0.6 100 254 1.7 2.5 1030.7 0.0000 0.0000
02:54 -0.7 -0.7 100 250 1.9 3.1 1030.7 0.0000 0.0000
03:04 -0.7 -0.7 100 251 1.9 3.1 1030.7 0.0000 0.0000
03:13 -0.7 -0.7 100 253 2.2 3.3 1030.8 0.0000 0.0000
03:24 -0.8 -0.8 100 251 1.9 3.1 1030.8 0.0000 0.0000
03:34 -0.8 -0.8 100 254 1.9 3.1 1030.9 0.0000 0.0000
03:45 -0.8 -0.8 100 253 1.7 2.8 1030.9 0.0000 0.0000
03:54 -0.8 -0.8 100 251 1.9 3.1 1030.9 0.0000 0.0000
04:05 -0.8 -0.8 100 257 1.9 3.1 1031 0.0000 0.0000
04:15 -0.8 -0.8 100 257 1.7 2.5 1031.1 0.0000 0.0000
04:25 -0.8 -0.8 100 255 1.7 2.8 1031.3 0.0000 0.0000
04:35 -0.8 -0.8 100 249 1.7 2.8 1031.3 0.0000 0.0000
04:45 -0.8 -0.8 100 247 1.9 2.8 1031.5 0.0000 0.0000
04:55 -0.7 -0.7 100 252 1.9 3.1 1031.5 0.0000 0.0000
05:05 -0.7 -0.7 100 254 1.9 2.8 1031.6 0.0000 0.0000
05:15 -0.7 -0.7 100 255 1.9 3.1 1031.6 0.0000 0.0000
05:24 -0.6 -0.6 100 250 2.2 3.6 1031.7 0.0000 0.0000
05:33 -0.6 -0.6 100 251 1.7 2.5 1031.8 0.0000 0.0000
05:44 -0.5 -0.5 100 255 1.4 2.8 1032 0.0000 0.0000
05:55 -0.5 -0.5 100 256 1.9 2.8 1032 0.0000 0.0000
06:05 -0.5 -0.5 100 246 1.7 2.8 1032.1 0.0000 0.0000
06:14 -0.5 -0.5 100 258 1.7 2.8 1032.3 0.0000 0.0000
06:24 -0.6 -0.6 100 255 1.7 2.5 1032.4 0.0000 0.0000
06:35 -0.6 -0.6 100 253 1.9 3.1 1032.5 0.0000 0.0000
06:45 -0.6 -0.6 100 254 1.9 3.1 1032.5 0.0000 0.0000
06:54 -0.6 -0.6 100 252 1.9 3.1 1032.7 0.0000 0.0000
07:05 -0.5 -0.5 100 254 1.7 2.5 1032.8 0.0000 0.0000
07:15 -0.5 -0.5 100 264 1.4 2.2 1033 0.0000 0.0000
07:25 -0.4 -0.4 100 261 1.7 3.3 1033.2 0.0000 0.0000
07:35 0 0 100 274 3.1 4.4 1033.4 0.0000 0.0000
07:45 0.2 0.2 100 278 3.6 5 1033.5 0.0000 0.0000
07:55 0.3 0.3 100 275 3.3 4.7 1033.6 0.0000 0.0000
08:05 0.5 0.5 100 263 2.8 4.4 1033.7 0.0000 0.0000
08:16 0.5 0.5 100 263 2.8 4.4 1033.8 0.0000 0.0000
08:25 0.6 0.6 100 256 2.8 3.6 1033.9 0.0000 0.0000
08:35 0.6 0.6 100 259 2.5 3.6 1033.9 0.0000 0.0000
08:41 0.7 0.7 100 249 2.2 3.6 1034 0.0000 0.0000
08:51 0.7 0.7 100 247 1.9 3.1 1034.1 0.0000 0.0000
09:06 0.9 0.9 100 257 2.5 3.6 1034.4 0.0000 0.0000
09:16 0.9 0.9 100 257 2.5 3.6 1034.5 0.0000 0.0000
09:26 1 1 100 254 1.9 3.1 1034.7 0.0000 0.0000
09:31 1.1 1.1 100 256 1.9 2.8 1034.6 0.0000 0.0000
09:46 1.3 1.3 100 258 2.2 3.3 1034.8 0.0000 0.0000
09:57 1.5 1.5 100 257 2.5 3.3 1034.9 0.0000 0.0000
10:06 1.8 1.8 100 258 2.5 3.3 1035.1 0.0000 0.0000
10:16 2.3 2.3 100 270 2.8 4.4 1035.2 0.0000 0.0000
10:23 2.4 2.4 100 273 3.3 4.7 1035.3 0.0000 0.0000
10:38 2.5 2.2 98 279 3.9 5 1035.6 0.0000 0.0000
10:47 2.6 2 96 277 3.9 5 1035.8 0.0000 0.0000
10:57 2.6 1.9 95 275 3.6 5 1036 0.0000 0.0000
11:04 2.7 2 95 270 3.3 5 1036 0.0000 0.0000
11:19 3 2.1 94 275 3.6 4.7 1036.1 0.0000 0.0000
11:28 3.1 1.9 92 270 3.1 4.7 1036.2 0.0000 0.0000
11:39 3.2 2 92 265 3.1 4.7 1036.4 0.0000 0.0000
11:49 3.3 2 91 264 3.3 5 1036.4 0.0000 0.0000
11:55 3.4 1.9 90 264 3.3 4.7 1036.4 0.0000 0.0000
12:10 3.5 1.9 89 266 3.6 4.7 1036.4 0.0000 0.0000
12:20 3.6 2 89 265 3.1 5 1036.5 0.0000 0.0000
12:30 3.6 1.8 88 270 3.6 5.3 1036.5 0.0000 0.0000
12:39 3.6 1.8 88 270 3.3 4.7 1036.6 0.0000 0.0000
12:49 3.6 1.8 88 270 3.3 4.4 1036.6 0.0000 0.0000
13:00 3.7 1.9 88 264 2.8 4.7 1036.7 0.0000 0.0000
13:10 3.7 1.7 87 277 3.6 5.8 1036.7 0.0000 0.0000
13:20 3.7 1.7 87 280 3.9 5.3 1036.8 0.0000 0.0000
13:30 3.7 1.9 88 280 3.9 5.6 1036.8 0.0000 0.0000
13:40 3.8 2 88 270 3.6 5 1037 0.0000 0.0000
13:51 3.9 2.3 89 270 3.3 4.4 1037 0.0000 0.0000
14:01 3.9 2.1 88 270 3.6 4.7 1037.1 0.0000 0.0000
14:10 4 2.2 88 270 3.3 4.4 1037.3 0.0000 0.0000
14:20 4 2 87 270 3.3 5 1037.5 0.0000 0.0000
14:31 4 2 87 270 3.3 4.7 1037.6 0.0000 0.0000
14:41 3.9 1.9 87 267 3.1 4.2 1037.7 0.0000 0.0000
14:50 3.9 2.1 88 270 3.1 4.7 1037.8 0.0000 0.0000
15:01 3.8 2 88 270 2.8 4.2 1037.9 0.0000 0.0000
15:10 3.7 2.1 89 270 2.8 4.7 1038.1 0.0000 0.0000
15:21 3.7 1.9 88 276 3.1 4.2 1038.2 0.0000 0.0000
15:31 3.6 1.8 88 270 2.8 3.6 1038.4 0.0000 0.0000
15:46 3.5 1.9 89 274 3.1 4.4 1038.5 0.0000 0.0000
15:56 3.4 1.8 89 273 3.1 4.7 1038.7 0.0000 0.0000
16:06 3.3 1.5 88 274 3.1 4.7 1038.8 0.0000 0.0000
16:17 3.2 1.6 89 261 2.8 3.9 1038.8 0.0000 0.0000
16:26 3.1 1.5 89 266 2.5 3.3 1039 0.0000 0.0000
16:36 3 1.5 90 264 2.5 3.3 1039.1 0.0000 0.0000
16:47 2.9 1.4 90 270 3.3 4.2 1039.2 0.0000 0.0000
16:57 2.8 1.2 89 278 3.6 5.3 1039.4 0.0000 0.0000
17:06 2.7 1.2 90 276 3.3 5 1039.6 0.0000 0.0000
17:16 2.6 1.1 90 275 3.3 4.4 1039.7 0.0000 0.0000
17:27 2.5 1 90 266 2.8 3.9 1039.9 0.0000 0.0000
17:37 2.4 0.9 90 270 2.8 3.9 1040 0.0000 0.0000
17:47 2.4 1.1 91 276 3.3 4.4 1040.1 0.0000 0.0000
17:57 2.3 1 91 270 3.1 4.2 1040.5 0.0000 0.0000
18:07 2.3 1 91 274 3.1 4.4 1040.7 0.0000 0.0000
18:17 2.4 1.2 92 270 2.8 3.6 1040.9 0.0000 0.0000
18:23 2.4 1.2 92 275 3.6 5 1041 0.0000 0.0000
18:38 2.4 1.2 92 274 3.1 4.4 1041.3 0.0000 0.0000
18:47 2.3 1.1 92 270 2.8 3.9 1041.4 0.0000 0.0000
18:57 2.3 1.1 92 270 2.8 3.9 1041.5 0.0000 0.0000
19:08 2.2 1 92 270 2.5 3.6 1041.7 0.0000 0.0000
19:18 2.1 0.9 92 266 2.5 3.3 1041.8 0.0000 0.0000
19:27 2 0.8 92 264 2.2 3.1 1041.9 0.0000 0.0000
19:37 1.9 0.7 92 270 2.5 3.6 1042.1 0.0000 0.0000
19:48 1.7 0.5 92 274 2.8 4.4 1042.1 0.0000 0.0000
19:54 1.7 0.5 92 275 3.1 4.4 1042.1 0.0000 0.0000
20:08 1.5 0.3 92 270 2.5 4.2 1042.2 0.0000 0.0000
20:13 1.4 0.1 91 260 2.2 3.1 1042.2 0.0000 0.0000
20:23 0.9 -0.4 91 261 2.2 3.6 1042.4 0.0000 0.0000
20:34 0.6 -0.5 92 259 2.5 3.3 1042.6 0.0000 0.0000
20:48 0.4 -0.4 94 262 2.2 3.1 1042.7 0.0000 0.0000
20:58 0.3 -0.5 94 260 2.2 3.3 1042.9 0.0000 0.0000
21:07 0.2 -0.4 95 260 2.2 3.3 1042.9 0.0000 0.0000
21:18 0.3 -0.2 96 262 2.5 3.6 1043 0.0000 0.0000
21:28 0.4 -0.1 96 262 2.5 3.6 1043.2 0.0000 0.0000
21:39 0.6 0 96 270 2.8 3.9 1043.3 0.0000 0.0000
21:48 0.8 0.2 96 264 2.8 3.9 1043.4 0.0000 0.0000
21:58 0.9 0.2 95 260 2.5 3.3 1043.5 0.0000 0.0000
22:09 1 0.3 95 276 3.1 4.4 1043.7 0.0000 0.0000

DAY STATISTIC

2020-01-19
TEMPERATURE
AVERAGE
1.3
HIGH
4.0
14:10
LOW
-0.8
03:24
PRESSURE
AVERAGE
1035.9
HIGH
1043.7
22:09
LOW
1029.8
00:15
DEWPOINT
AVERAGE
0.6
HIGH
2.4
10:23
LOW
-0.8
03:24
HUMIDITY
AVERAGE
95
HIGH
100
00:15
LOW
87
13:10
WIND SPEED
AVERAGE
2.5
HIGH
3.9
10:38
WIND GUST
AVERAGE
3.7
HIGH
5.8
13:10
WIND DIRECTION
PREVAILING
W
96.2%
N
0.0
NE
0.0
E
0.0
SE
0.0
S
0.0
SW
3.8
W
96.2
NW
0.0
PRECIPITATION
RAIN HOUR
0.0
RAIN DAY
0.0
TEMPERATURE (°C)
LOW
-0.8
HIGH
4.0
AVERAGE
1.3
PRESSURE (hpa)
LOW
1029.8
HIGH
1043.7
AVERAGE
1035.9
DEVICE